Time,TemperatureF,DewpointF,PressureIn,WindDirection,WindDirectionDegrees,WindSpeedMPH,WindSpeedGustMPH,Humidity,HourlyPrecipIn,Conditions,Clouds,dailyrainin,SolarRadiationWatts/m^2,SoftwareType,DateUTC
2013-04-12 00:03:00,57.0,-99.9,-100.00,NNE,12,3.0,12.0,-999,0.00,,,0.04,0.000000,,2013-04-12 10:03:00,
2013-04-12 00:13:00,57.0,-99.9,-100.00,NNE,12,3.0,12.0,-999,0.00,,,0.04,0.000000,,2013-04-12 10:13:00,
2013-04-12 00:43:00,58.0,-99.9,-100.00,NE,44,3.0,15.0,-999,0.00,,,0.04,0.000000,,2013-04-12 10:43:00,
2013-04-12 00:53:00,58.0,-99.9,-100.00,NE,44,3.0,15.0,-999,0.00,,,0.04,0.000000,,2013-04-12 10:53:00,
2013-04-12 01:03:00,58.0,-99.9,-100.00,NE,44,3.0,15.0,-999,0.00,,,0.04,0.000000,,2013-04-12 11:03:00,
2013-04-12 01:13:00,58.0,-99.9,-100.00,NE,44,3.0,15.0,-999,0.00,,,0.04,0.000000,,2013-04-12 11:13:00,
2013-04-12 01:22:00,58.0,-99.9,-100.00,NE,44,3.0,15.0,-999,0.00,,,0.04,0.000000,,2013-04-12 11:22:00,
2013-04-12 01:43:00,58.0,-99.9,-100.00,ENE,71,3.0,11.0,-999,0.00,,,0.04,0.000000,,2013-04-12 11:43:00,
2013-04-12 01:53:00,58.0,-99.9,-100.00,ENE,71,3.0,11.0,-999,0.00,,,0.04,0.000000,,2013-04-12 11:53:00,
2013-04-12 02:03:00,58.0,-99.9,-100.00,ENE,71,3.0,11.0,-999,0.00,,,0.04,0.000000,,2013-04-12 12:03:00,
2013-04-12 02:13:00,58.0,-99.9,-100.00,ENE,71,3.0,11.0,-999,0.00,,,0.04,0.000000,,2013-04-12 12:13:00,
2013-04-12 02:22:00,58.0,-99.9,-100.00,ENE,71,3.0,11.0,-999,0.00,,,0.04,0.000000,,2013-04-12 12:22:00,
2013-04-12 02:43:00,56.0,-99.9,-100.00,NNE,21,2.0,10.0,-999,0.00,,,0.04,0.000000,,2013-04-12 12:43:00,
2013-04-12 02:54:00,56.0,-99.9,-100.00,NNE,21,2.0,10.0,-999,0.00,,,0.04,0.000000,,2013-04-12 12:54:00,
2013-04-12 03:03:00,56.0,-99.9,-100.00,NNE,21,2.0,10.0,-999,0.00,,,0.04,0.000000,,2013-04-12 13:03:00,
2013-04-12 03:13:00,56.0,-99.9,-100.00,NNE,21,2.0,10.0,-999,0.00,,,0.04,0.000000,,2013-04-12 13:13:00,
2013-04-12 03:22:00,56.0,-99.9,-100.00,NNE,21,2.0,10.0,-999,0.00,,,0.04,0.000000,,2013-04-12 13:22:00,
2013-04-12 03:43:00,56.0,53.0,-100.00,North,357,3.0,10.0,91,0.00,,,0.04,0.000000,,2013-04-12 13:43:00,
2013-04-12 03:53:00,56.0,53.0,-100.00,North,357,3.0,10.0,91,0.00,,,0.04,0.000000,,2013-04-12 13:53:00,
2013-04-12 04:03:00,56.0,53.0,-100.00,North,357,3.0,10.0,91,0.00,,,0.04,0.000000,,2013-04-12 14:03:00,
2013-04-12 04:12:00,56.0,53.0,-100.00,North,357,3.0,10.0,91,0.00,,,0.04,0.000000,,2013-04-12 14:12:00,
2013-04-12 04:21:00,56.0,53.0,-100.00,North,357,3.0,10.0,91,0.00,,,0.04,0.000000,,2013-04-12 14:21:00,
2013-04-12 04:43:00,55.0,52.0,-100.00,North,352,3.0,8.0,91,0.00,,,0.04,0.000000,,2013-04-12 14:43:00,
2013-04-12 04:53:00,55.0,52.0,-100.00,North,352,3.0,8.0,91,0.00,,,0.04,0.000000,,2013-04-12 14:53:00,
2013-04-12 05:02:00,55.0,52.0,-100.00,North,352,3.0,8.0,91,0.00,,,0.04,0.000000,,2013-04-12 15:02:00,
2013-04-12 05:12:00,55.0,52.0,-100.00,North,352,3.0,8.0,91,0.00,,,0.04,0.000000,,2013-04-12 15:12:00,
2013-04-12 05:21:00,55.0,52.0,-100.00,North,352,3.0,8.0,91,0.00,,,0.04,0.000000,,2013-04-12 15:21:00,
2013-04-12 05:43:00,56.0,52.0,-100.00,North,352,4.0,12.0,85,0.00,,,-99.99,0.000000,,2013-04-12 15:43:00,
2013-04-12 05:53:00,56.0,52.0,-100.00,North,352,4.0,12.0,85,0.00,,,-99.99,0.000000,,2013-04-12 15:53:00,
2013-04-12 06:03:00,56.0,52.0,-100.00,North,352,4.0,12.0,85,0.00,,,-99.99,0.000000,,2013-04-12 16:03:00,
2013-04-12 06:13:00,56.0,52.0,-100.00,North,352,4.0,12.0,85,0.00,,,-99.99,0.000000,,2013-04-12 16:13:00,
2013-04-12 06:22:00,56.0,52.0,-100.00,North,352,4.0,12.0,85,0.00,,,-99.99,0.000000,,2013-04-12 16:22:00,
2013-04-12 06:43:00,56.0,55.0,-100.00,North,355,3.0,9.0,98,0.00,,,0.04,0.000000,,2013-04-12 16:43:00,
2013-04-12 06:53:00,56.0,55.0,-100.00,North,355,3.0,9.0,98,0.00,,,0.04,0.000000,,2013-04-12 16:53:00,
2013-04-12 07:03:00,56.0,55.0,-100.00,North,355,3.0,9.0,98,0.00,,,0.04,0.000000,,2013-04-12 17:03:00,
2013-04-12 07:12:00,56.0,55.0,-100.00,North,355,3.0,9.0,98,0.00,,,0.04,0.000000,,2013-04-12 17:12:00,
2013-04-12 07:22:00,56.0,55.0,-100.00,North,355,3.0,9.0,98,0.00,,,0.04,0.000000,,2013-04-12 17:22:00,
2013-04-12 07:23:00,57.0,-99.9,-100.00,North,10,3.0,10.0,-999,0.00,,,0.04,20.000000,,2013-04-12 17:23:00,
2013-04-12 07:48:00,57.0,-99.9,-100.00,North,10,3.0,10.0,-999,0.00,,,0.04,20.000000,,2013-04-12 17:48:00,
2013-04-12 08:09:00,57.0,-99.9,-100.00,North,10,3.0,10.0,-999,0.00,,,0.04,20.000000,,2013-04-12 18:09:00,
2013-04-12 08:23:00,59.0,-99.9,-100.00,North,358,3.0,10.0,-999,0.00,,,0.04,127.000000,,2013-04-12 18:23:00,
2013-04-12 09:43:00,61.0,55.0,-100.00,NNE,12,3.0,13.0,81,0.00,,,0.04,217.000000,,2013-04-12 19:43:00,
2013-04-12 09:53:00,61.0,55.0,-100.00,NNE,12,3.0,13.0,81,0.00,,,0.04,217.000000,,2013-04-12 19:53:00,
2013-04-12 10:02:00,61.0,55.0,-100.00,NNE,12,3.0,13.0,81,0.00,,,0.04,217.000000,,2013-04-12 20:02:00,
2013-04-12 10:12:00,61.0,55.0,-100.00,NNE,12,3.0,13.0,81,0.00,,,0.04,217.000000,,2013-04-12 20:12:00,
2013-04-12 10:21:00,61.0,55.0,-100.00,NNE,12,3.0,13.0,81,0.00,,,0.04,217.000000,,2013-04-12 20:21:00,
2013-04-12 10:43:00,63.0,59.0,-100.00,NE,49,3.0,12.0,86,0.00,,,0.04,330.000000,,2013-04-12 20:43:00,
2013-04-12 10:52:00,63.0,59.0,-100.00,NE,49,3.0,12.0,86,0.00,,,0.04,330.000000,,2013-04-12 20:52:00,
2013-04-12 11:02:00,63.0,59.0,-100.00,NE,49,3.0,12.0,86,0.00,,,0.04,330.000000,,2013-04-12 21:02:00,
2013-04-12 11:11:00,63.0,59.0,-100.00,NE,49,3.0,12.0,86,0.00,,,0.04,330.000000,,2013-04-12 21:11:00,
2013-04-12 11:21:00,63.0,59.0,-100.00,NE,49,3.0,12.0,86,0.00,,,0.04,330.000000,,2013-04-12 21:21:00,
2013-04-12 11:43:00,62.0,58.0,-100.00,East,92,3.0,11.0,86,0.00,,,0.04,297.000000,,2013-04-12 21:43:00,
2013-04-12 11:52:00,62.0,58.0,-100.00,East,92,3.0,11.0,86,0.00,,,0.04,297.000000,,2013-04-12 21:52:00,
2013-04-12 12:02:00,62.0,58.0,-100.00,East,92,3.0,11.0,86,0.00,,,0.04,297.000000,,2013-04-12 22:02:00,
2013-04-12 12:12:00,62.0,58.0,-100.00,East,92,3.0,11.0,86,0.00,,,0.04,297.000000,,2013-04-12 22:12:00,
2013-04-12 12:22:00,62.0,58.0,-100.00,East,92,3.0,11.0,86,0.00,,,0.04,297.000000,,2013-04-12 22:22:00,
2013-04-12 12:43:00,64.0,57.0,-100.00,ESE,109,4.0,14.0,79,0.00,,,0.04,489.000000,,2013-04-12 22:43:00,
2013-04-12 12:52:00,64.0,57.0,-100.00,ESE,109,4.0,14.0,79,0.00,,,0.04,489.000000,,2013-04-12 22:52:00,
2013-04-12 13:03:00,64.0,57.0,-100.00,ESE,109,4.0,14.0,79,0.00,,,0.04,489.000000,,2013-04-12 23:03:00,
2013-04-12 13:12:00,64.0,57.0,-100.00,ESE,109,4.0,14.0,79,0.00,,,0.04,489.000000,,2013-04-12 23:12:00,
2013-04-12 13:21:00,64.0,57.0,-100.00,ESE,109,4.0,14.0,79,0.00,,,0.04,489.000000,,2013-04-12 23:21:00,
2013-04-12 13:42:00,67.0,60.0,-100.00,East,90,4.0,14.0,77,0.00,,,0.04,776.000000,,2013-04-12 23:42:00,
2013-04-12 13:52:00,67.0,60.0,-100.00,East,90,4.0,14.0,77,0.00,,,0.04,776.000000,,2013-04-12 23:52:00,
2013-04-12 14:02:00,67.0,60.0,-100.00,East,90,4.0,14.0,77,0.00,,,0.04,776.000000,,2013-04-13 00:02:00,
2013-04-12 14:12:00,67.0,60.0,-100.00,East,90,4.0,14.0,77,0.00,,,0.04,776.000000,,2013-04-13 00:12:00,
2013-04-12 14:21:00,67.0,60.0,-100.00,East,90,4.0,14.0,77,0.00,,,0.04,776.000000,,2013-04-13 00:21:00,
2013-04-12 14:42:00,64.0,61.0,-100.00,ESE,120,3.0,15.0,89,0.00,,,0.04,480.000000,,2013-04-13 00:42:00,
2013-04-12 14:52:00,64.0,61.0,-100.00,ESE,120,3.0,15.0,89,0.00,,,0.04,480.000000,,2013-04-13 00:52:00,
2013-04-12 15:02:00,64.0,61.0,-100.00,ESE,120,3.0,15.0,89,0.00,,,0.04,480.000000,,2013-04-13 01:02:00,
2013-04-12 15:12:00,64.0,61.0,-100.00,ESE,120,3.0,15.0,89,0.00,,,0.04,480.000000,,2013-04-13 01:12:00,
2013-04-12 15:21:00,64.0,61.0,-100.00,ESE,120,3.0,15.0,89,0.00,,,0.04,480.000000,,2013-04-13 01:21:00,
2013-04-12 15:43:00,65.0,56.0,-100.00,East,83,3.0,11.0,73,0.00,,,0.04,622.000000,,2013-04-13 01:43:00,
2013-04-12 15:52:00,65.0,56.0,-100.00,East,83,3.0,11.0,73,0.00,,,0.04,622.000000,,2013-04-13 01:52:00,
2013-04-12 16:02:00,65.0,56.0,-100.00,East,83,3.0,11.0,73,0.00,,,0.04,622.000000,,2013-04-13 02:02:00,
2013-04-12 16:12:00,65.0,56.0,-100.00,East,83,3.0,11.0,73,0.00,,,0.04,622.000000,,2013-04-13 02:12:00,
2013-04-12 16:22:00,65.0,56.0,-100.00,East,83,3.0,11.0,73,0.00,,,0.04,622.000000,,2013-04-13 02:22:00,
2013-04-12 16:43:00,66.0,60.0,-100.00,East,97,3.0,11.0,82,0.00,,,0.04,572.000000,,2013-04-13 02:43:00,
2013-04-12 16:53:00,66.0,60.0,-100.00,East,97,3.0,11.0,82,0.00,,,0.04,572.000000,,2013-04-13 02:53:00,
2013-04-12 17:02:00,66.0,60.0,-100.00,East,97,3.0,11.0,82,0.00,,,0.04,572.000000,,2013-04-13 03:02:00,
2013-04-12 17:12:00,66.0,60.0,-100.00,East,97,3.0,11.0,82,0.00,,,0.04,572.000000,,2013-04-13 03:12:00,
2013-04-12 17:22:00,66.0,60.0,-100.00,East,97,3.0,11.0,82,0.00,,,0.04,572.000000,,2013-04-13 03:22:00,
2013-04-12 17:43:00,63.0,58.0,-100.00,ENE,57,3.0,10.0,85,0.00,,,0.04,290.000000,,2013-04-13 03:43:00,
2013-04-12 17:53:00,63.0,58.0,-100.00,ENE,57,3.0,10.0,85,0.00,,,0.04,290.000000,,2013-04-13 03:53:00,
2013-04-12 18:02:00,63.0,58.0,-100.00,ENE,57,3.0,10.0,85,0.00,,,0.04,290.000000,,2013-04-13 04:02:00,
2013-04-12 18:12:00,63.0,58.0,-100.00,ENE,57,3.0,10.0,85,0.00,,,0.04,290.000000,,2013-04-13 04:12:00,
2013-04-12 18:22:00,63.0,58.0,-100.00,ENE,57,3.0,10.0,85,0.00,,,0.04,290.000000,,2013-04-13 04:22:00,
2013-04-12 18:42:00,61.0,59.0,-100.00,NNE,25,3.0,9.0,92,0.00,,,0.03,128.000000,,2013-04-13 04:42:00,
2013-04-12 18:53:00,61.0,59.0,-100.00,NNE,25,3.0,9.0,92,0.00,,,0.03,128.000000,,2013-04-13 04:53:00,
2013-04-12 19:02:00,61.0,59.0,-100.00,NNE,25,3.0,9.0,92,0.00,,,0.03,128.000000,,2013-04-13 05:02:00,
2013-04-12 19:12:00,61.0,59.0,-100.00,NNE,25,3.0,9.0,92,0.00,,,0.03,128.000000,,2013-04-13 05:12:00,
2013-04-12 19:22:00,61.0,59.0,-100.00,NNE,25,3.0,9.0,92,0.00,,,0.03,128.000000,,2013-04-13 05:22:00,
2013-04-12 19:23:00,59.0,-99.9,-100.00,NNE,18,2.0,9.0,-999,0.00,,,0.01,7.000000,,2013-04-13 05:23:00,
2013-04-12 19:43:00,59.0,-99.9,-100.00,NNE,18,2.0,9.0,-999,0.00,,,0.01,7.000000,,2013-04-13 05:43:00,
2013-04-12 19:53:00,59.0,-99.9,-100.00,NNE,18,2.0,9.0,-999,0.00,,,0.01,7.000000,,2013-04-13 05:53:00,
2013-04-12 20:02:00,59.0,-99.9,-100.00,NNE,18,2.0,9.0,-999,0.00,,,0.01,7.000000,,2013-04-13 06:02:00,
2013-04-12 20:12:00,59.0,-99.9,-100.00,NNE,18,2.0,9.0,-999,0.00,,,0.01,7.000000,,2013-04-13 06:12:00,
2013-04-12 20:23:00,58.0,-99.9,-100.00,North,2,2.0,8.0,-999,0.01,,,0.01,0.000000,,2013-04-13 06:23:00,
2013-04-12 20:57:00,58.0,-99.9,-100.00,North,2,2.0,8.0,-999,0.01,,,0.01,0.000000,,2013-04-13 06:57:00,
2013-04-12 21:08:00,58.0,-99.9,-100.00,North,2,2.0,8.0,-999,0.01,,,0.01,0.000000,,2013-04-13 07:08:00,
2013-04-12 21:16:00,58.0,-99.9,-100.00,North,2,2.0,8.0,-999,0.01,,,0.01,0.000000,,2013-04-13 07:16:00,
2013-04-12 21:23:00,57.0,-99.9,-100.00,North,356,3.0,7.0,-999,0.00,,,0.01,0.000000,,2013-04-13 07:23:00,
2013-04-12 21:47:00,57.0,-99.9,-100.00,North,356,3.0,7.0,-999,0.00,,,0.01,0.000000,,2013-04-13 07:47:00,
2013-04-12 21:59:00,57.0,-99.9,-100.00,North,356,3.0,7.0,-999,0.00,,,0.01,0.000000,,2013-04-13 07:59:00,
2013-04-12 22:08:00,57.0,-99.9,-100.00,North,356,3.0,7.0,-999,0.00,,,0.01,0.000000,,2013-04-13 08:08:00,
2013-04-12 22:18:00,57.0,-99.9,-100.00,North,356,3.0,7.0,-999,0.00,,,0.01,0.000000,,2013-04-13 08:18:00,
2013-04-12 22:23:00,57.0,-99.9,-100.00,NNW,345,2.0,9.0,-999,0.00,,,0.01,0.000000,,2013-04-13 08:23:00,
2013-04-12 22:48:00,57.0,-99.9,-100.00,NNW,345,2.0,9.0,-999,0.00,,,0.01,0.000000,,2013-04-13 08:48:00,
2013-04-12 22:55:00,57.0,-99.9,-100.00,NNW,345,2.0,9.0,-999,0.00,,,0.01,0.000000,,2013-04-13 08:55:00,
2013-04-12 23:07:00,57.0,-99.9,-100.00,NNW,345,2.0,9.0,-999,0.00,,,0.01,0.000000,,2013-04-13 09:07:00,
2013-04-12 23:15:00,57.0,-99.9,-100.00,NNW,345,2.0,9.0,-999,0.00,,,0.01,0.000000,,2013-04-13 09:15:00,
2013-04-12 23:23:00,57.0,-99.9,-100.00,NNW,347,2.0,7.0,-999,0.00,,,0.01,0.000000,,2013-04-13 09:23:00,
2013-04-12 23:53:00,57.0,-99.9,-100.00,NNW,347,2.0,7.0,-999,0.00,,,0.01,0.000000,,2013-04-13 09:53:00,